createdAt,value
2023-03-31T07:45:34.943Z,22.60
2023-03-31T07:48:03.800Z,28.30
2023-03-31T07:50:32.274Z,27.70
2023-03-31T07:53:01.675Z,22.00
2023-03-31T07:55:30.128Z,26.20
2023-03-31T07:57:58.444Z,29.80
2023-03-31T08:00:27.768Z,30.00
2023-03-31T08:02:55.980Z,33.00
2023-03-31T08:05:24.631Z,50.10
2023-03-31T08:07:53.529Z,36.40
2023-03-31T08:10:28.457Z,41.50
2023-03-31T08:12:57.058Z,41.20
2023-03-31T08:15:25.629Z,40.40
2023-03-31T08:17:54.276Z,49.10
2023-03-31T08:20:22.803Z,30.00
2023-03-31T08:22:51.090Z,25.00
2023-03-31T08:25:20.906Z,28.30
2023-03-31T08:27:51.308Z,38.40
2023-03-31T08:30:20.620Z,24.60
2023-03-31T08:32:49.229Z,32.70
2023-03-31T08:35:18.121Z,28.60
2023-03-31T08:37:47.944Z,29.70
2023-03-31T08:40:21.029Z,37.10
2023-03-31T08:42:53.311Z,30.40
2023-03-31T08:45:27.485Z,24.90
2023-03-31T08:48:19.135Z,28.40
2023-03-31T08:50:53.371Z,21.40
2023-03-31T08:53:35.119Z,31.30
2023-03-31T08:56:08.383Z,21.60
2023-03-31T08:58:42.365Z,30.30
2023-03-31T09:04:19.473Z,25.20
2023-03-31T09:07:07.254Z,37.20
2023-03-31T09:10:03.865Z,38.10
2023-03-31T09:12:42.112Z,32.20
2023-03-31T09:15:16.168Z,29.70
2023-03-31T09:17:46.478Z,58.80
2023-03-31T09:20:26.046Z,125.20
2023-03-31T09:23:11.568Z,59.10
2023-03-31T09:25:42.651Z,45.90
2023-03-31T09:28:22.251Z,41.40
2023-03-31T09:30:51.037Z,42.20
2023-03-31T09:33:32.133Z,49.90
2023-03-31T09:36:02.023Z,38.80
2023-03-31T09:38:31.469Z,32.40
2023-03-31T09:41:02.799Z,33.50
2023-03-31T09:43:35.249Z,34.00
2023-03-31T09:46:15.278Z,33.70
2023-03-31T09:48:52.431Z,29.10
2023-03-31T09:51:30.825Z,25.50
2023-03-31T09:54:14.968Z,25.20
2023-03-31T09:56:43.424Z,30.80
2023-03-31T09:59:20.881Z,27.20
2023-03-31T10:01:56.836Z,25.90
2023-03-31T10:04:29.074Z,100.70
2023-03-31T10:06:59.391Z,100.60
2023-03-31T10:09:31.680Z,27.70
2023-03-31T10:12:06.504Z,64.20
2023-03-31T10:14:52.867Z,35.80
2023-03-31T10:17:24.562Z,32.70
2023-03-31T10:19:57.448Z,28.00
2023-03-31T10:22:31.363Z,33.10
2023-03-31T10:27:58.417Z,27.40
2023-03-31T10:30:31.100Z,28.20
2023-03-31T10:33:05.736Z,24.10
2023-03-31T10:35:41.078Z,34.40
2023-03-31T10:38:26.539Z,26.40
2023-03-31T10:40:58.042Z,26.10
2023-03-31T10:43:35.910Z,23.90
2023-03-31T10:46:05.110Z,22.50
2023-03-31T10:48:38.858Z,18.40
2023-03-31T10:51:42.804Z,22.80
2023-03-31T10:54:12.834Z,18.90
2023-03-31T10:56:47.890Z,14.20
2023-03-31T10:59:41.632Z,11.40
2023-03-31T11:02:13.620Z,9.50
2023-03-31T11:05:04.904Z,13.10
2023-03-31T11:07:54.973Z,18.80
2023-03-31T11:10:32.157Z,12.80
2023-03-31T11:13:00.649Z,15.10
2023-03-31T11:15:46.337Z,22.20
2023-03-31T11:18:45.658Z,10.20
2023-03-31T11:21:41.937Z,14.00
2023-03-31T11:24:45.419Z,16.20
2023-03-31T11:27:24.554Z,12.20
2023-03-31T11:30:27.218Z,14.20
2023-03-31T11:33:07.231Z,18.80
2023-03-31T11:35:48.064Z,23.80
2023-03-31T11:38:47.673Z,14.30
2023-03-31T11:41:20.022Z,16.00
2023-03-31T11:43:55.599Z,15.80
2023-03-31T11:46:33.342Z,17.00
2023-03-31T11:49:14.146Z,20.30
2023-03-31T11:51:49.262Z,34.20
2023-03-31T11:54:31.704Z,20.80
2023-03-31T11:57:07.238Z,15.10
2023-03-31T11:59:37.951Z,17.80
2023-03-31T12:02:29.999Z,20.50
2023-03-31T12:04:59.519Z,22.30
2023-03-31T12:07:44.359Z,20.20
2023-03-31T12:10:19.684Z,23.10
2023-03-31T12:13:20.735Z,22.40
2023-03-31T12:16:06.691Z,22.80
2023-03-31T12:19:15.153Z,82.30
2023-03-31T12:21:59.148Z,24.10
2023-03-31T12:24:34.999Z,21.30
2023-03-31T12:27:09.496Z,25.20
2023-03-31T12:29:45.076Z,22.00
2023-03-31T12:32:23.599Z,24.20
2023-03-31T12:34:58.762Z,22.50
2023-03-31T12:38:11.318Z,18.40
2023-03-31T12:41:07.964Z,22.00
2023-03-31T12:43:45.446Z,18.80
2023-03-31T12:46:51.417Z,21.60
2023-03-31T12:49:40.134Z,23.60
2023-03-31T12:52:37.471Z,21.70
2023-03-31T12:55:21.596Z,21.10
2023-03-31T12:57:51.679Z,19.40
2023-03-31T13:00:27.053Z,20.20
2023-03-31T13:03:36.524Z,18.60
2023-03-31T13:06:05.989Z,23.20
2023-03-31T13:08:56.724Z,20.90
2023-03-31T13:11:34.509Z,18.00
2023-03-31T13:14:25.300Z,19.30
2023-03-31T13:17:22.949Z,25.20
2023-03-31T13:19:53.660Z,26.20
2023-03-31T13:22:37.737Z,19.00
2023-03-31T13:27:54.261Z,22.20
2023-03-31T13:30:41.598Z,27.30
2023-03-31T13:33:12.542Z,20.60
2023-03-31T13:35:46.435Z,18.30
2023-03-31T13:38:31.598Z,19.60
2023-03-31T13:41:20.140Z,16.10
2023-03-31T13:43:51.075Z,16.00
2023-03-31T13:46:53.856Z,20.30
2023-03-31T13:49:46.999Z,15.50
2023-03-31T13:52:41.688Z,17.20
2023-03-31T13:55:41.276Z,29.20
2023-03-31T13:58:42.002Z,25.10
2023-03-31T14:02:09.340Z,28.10
2023-03-31T14:04:56.865Z,16.00
2023-03-31T14:07:47.743Z,15.90
2023-03-31T14:10:36.964Z,20.50
2023-03-31T14:13:18.905Z,13.60
2023-03-31T14:15:59.960Z,13.70
2023-03-31T14:18:38.446Z,16.30
2023-03-31T14:21:21.617Z,23.70
2023-03-31T14:24:06.866Z,25.10
2023-03-31T14:26:35.137Z,19.90
2023-03-31T14:29:27.698Z,18.40
2023-03-31T14:32:14.408Z,18.80
2023-03-31T14:34:45.667Z,16.40
2023-03-31T14:37:18.001Z,22.70
2023-03-31T14:39:53.899Z,17.10
2023-03-31T14:42:27.251Z,21.70
2023-03-31T14:45:03.872Z,19.50
2023-03-31T14:47:35.419Z,16.50
2023-03-31T14:50:15.185Z,18.40
2023-03-31T14:52:48.894Z,16.20
2023-03-31T14:55:21.650Z,16.50
2023-03-31T15:00:28.642Z,15.80
2023-03-31T15:02:59.839Z,12.60
2023-03-31T15:05:37.268Z,15.60
2023-03-31T15:08:15.895Z,22.00
2023-03-31T15:10:54.079Z,14.80
2023-03-31T15:13:38.433Z,12.50
2023-03-31T15:16:32.935Z,20.30
2023-03-31T15:19:11.595Z,11.20
2023-03-31T15:21:44.449Z,13.30
2023-03-31T15:24:15.110Z,11.00
2023-03-31T15:27:01.142Z,10.80
2023-03-31T15:29:43.344Z,16.20
2023-03-31T15:32:25.577Z,14.70
2023-03-31T15:34:55.588Z,17.20
2023-03-31T15:37:32.979Z,14.10
2023-03-31T15:40:05.129Z,17.20
2023-03-31T15:42:35.785Z,16.50
2023-03-31T15:45:37.020Z,20.20
2023-03-31T15:48:07.101Z,17.90
2023-03-31T15:50:36.594Z,14.20
2023-03-31T15:53:33.450Z,11.30
2023-03-31T15:56:02.065Z,10.50
2023-03-31T15:58:56.333Z,14.50
2023-03-31T16:03:58.948Z,10.80
2023-03-31T16:06:39.261Z,14.00
2023-03-31T16:09:11.003Z,14.90
2023-03-31T16:11:45.803Z,19.90
2023-03-31T16:14:28.111Z,19.30
2023-03-31T16:17:08.168Z,16.80
2023-03-31T16:19:47.402Z,18.40
2023-03-31T16:22:22.662Z,18.30
2023-03-31T16:24:51.406Z,15.40
2023-03-31T16:27:19.913Z,22.70
2023-03-31T16:29:48.308Z,21.30
2023-03-31T16:32:19.468Z,28.10
2023-03-31T16:34:55.500Z,24.70
2023-03-31T16:37:24.937Z,19.40
2023-03-31T16:39:57.415Z,23.20
2023-03-31T16:42:27.311Z,28.00
2023-03-31T16:45:13.152Z,26.00
2023-03-31T16:47:45.970Z,21.00
2023-03-31T16:50:15.938Z,14.70
2023-03-31T16:52:44.384Z,24.50
2023-03-31T16:55:12.967Z,30.00
2023-03-31T16:57:41.713Z,37.50
2023-03-31T17:00:11.195Z,38.40
2023-03-31T17:02:39.758Z,27.70
2023-03-31T17:05:13.061Z,33.20
2023-03-31T17:07:42.876Z,29.00
2023-03-31T17:10:12.990Z,27.00
2023-03-31T17:12:41.500Z,29.90
2023-03-31T17:15:11.852Z,33.50
2023-03-31T17:17:43.706Z,29.00
2023-03-31T17:20:12.646Z,43.30
2023-03-31T17:22:41.884Z,31.00
2023-03-31T17:25:11.488Z,37.60
2023-03-31T17:27:40.081Z,31.10
2023-03-31T17:30:09.444Z,23.70
2023-03-31T17:32:38.496Z,30.10
2023-03-31T17:35:07.831Z,29.70
2023-03-31T17:37:37.601Z,30.30
2023-03-31T17:40:12.751Z,22.40
2023-03-31T17:42:41.236Z,27.20
2023-03-31T17:45:11.726Z,35.70
2023-03-31T17:47:41.695Z,36.20
2023-03-31T17:50:11.716Z,32.30
2023-03-31T17:52:41.318Z,29.70
2023-03-31T17:55:10.066Z,19.50
2023-03-31T17:57:40.562Z,29.50
2023-03-31T18:00:10.201Z,50.10
2023-03-31T18:02:39.626Z,51.90
2023-03-31T18:05:09.339Z,42.30
2023-03-31T18:07:38.305Z,35.80
2023-03-31T18:10:07.490Z,42.90
2023-03-31T18:12:36.764Z,47.80
2023-03-31T18:15:07.221Z,49.10
2023-03-31T18:17:36.851Z,39.80
2023-03-31T18:20:06.469Z,42.00
2023-03-31T18:22:34.825Z,45.80
2023-03-31T18:25:04.143Z,33.00
2023-03-31T18:27:33.135Z,47.90
2023-03-31T18:30:05.092Z,40.50
2023-03-31T18:32:33.780Z,36.90
2023-03-31T18:35:02.693Z,34.30
2023-03-31T18:37:34.044Z,37.70
2023-03-31T18:40:03.901Z,41.50
2023-03-31T18:42:32.927Z,55.10
2023-03-31T18:45:01.341Z,48.40
2023-03-31T18:47:30.043Z,36.10
2023-03-31T18:49:58.629Z,36.40
2023-03-31T18:52:27.623Z,34.70
2023-03-31T18:54:58.560Z,36.50
2023-03-31T18:57:27.049Z,39.60
2023-03-31T18:59:56.055Z,39.60
2023-03-31T19:02:24.576Z,42.60
2023-03-31T19:04:53.637Z,40.10
2023-03-31T19:07:24.687Z,34.30
2023-03-31T19:09:54.401Z,42.50
2023-03-31T19:12:23.808Z,39.60
2023-03-31T19:14:53.829Z,40.80
2023-03-31T19:17:22.566Z,39.50
2023-03-31T19:19:53.468Z,27.60
2023-03-31T19:24:54.533Z,38.90
2023-03-31T19:27:25.579Z,51.20
2023-03-31T19:29:54.064Z,38.40
2023-03-31T19:32:22.345Z,39.60
2023-03-31T19:34:52.066Z,40.20
2023-03-31T19:37:21.432Z,31.30
2023-03-31T19:39:52.509Z,31.20
2023-03-31T19:42:20.997Z,34.20
2023-03-31T19:44:52.347Z,41.60
2023-03-31T19:47:21.458Z,42.40
2023-03-31T19:49:49.936Z,44.40
2023-03-31T19:52:18.424Z,36.80
2023-03-31T19:54:46.613Z,33.80
2023-03-31T19:57:15.006Z,36.60
2023-03-31T19:59:43.370Z,42.80
2023-03-31T20:02:14.033Z,34.30
2023-03-31T20:04:42.939Z,42.40
2023-03-31T20:07:12.027Z,41.20
2023-03-31T20:09:41.003Z,39.00
2023-03-31T20:12:09.593Z,27.50
2023-03-31T20:14:38.798Z,39.80
2023-03-31T20:17:07.690Z,36.10
2023-03-31T20:19:36.409Z,25.50
2023-03-31T20:22:06.177Z,30.20
2023-03-31T20:24:34.898Z,45.80
2023-03-31T20:27:03.506Z,34.50
2023-03-31T20:29:34.933Z,42.10
2023-03-31T20:32:03.105Z,35.40
2023-03-31T20:34:31.805Z,38.10
2023-03-31T20:37:02.543Z,33.00
2023-03-31T20:39:31.437Z,30.80
2023-03-31T20:41:59.930Z,33.70
2023-03-31T20:44:29.038Z,32.90
2023-03-31T20:46:59.255Z,40.30
2023-03-31T20:49:27.843Z,32.40
2023-03-31T20:51:56.633Z,29.80
2023-03-31T20:54:24.915Z,36.40
2023-03-31T20:56:53.686Z,25.90
2023-03-31T20:59:23.425Z,33.50
2023-03-31T21:01:51.811Z,38.50
2023-03-31T21:04:21.126Z,33.30
2023-03-31T21:06:49.707Z,35.40
2023-03-31T21:09:17.999Z,35.60
2023-03-31T21:11:47.703Z,45.80
2023-03-31T21:14:17.338Z,40.30
2023-03-31T21:16:46.081Z,29.70
2023-03-31T21:19:15.041Z,34.20
2023-03-31T21:21:43.696Z,39.20
2023-03-31T21:24:12.768Z,41.10
2023-03-31T21:26:41.317Z,41.00
2023-03-31T21:29:09.884Z,39.10
2023-03-31T21:31:38.479Z,39.40
2023-03-31T21:34:06.952Z,51.40
2023-03-31T21:36:35.242Z,34.10
2023-03-31T21:39:03.637Z,30.30
2023-03-31T21:41:32.811Z,36.50
2023-03-31T21:44:02.787Z,41.50
2023-03-31T21:46:34.206Z,34.50
2023-03-31T21:49:03.263Z,35.00
2023-03-31T21:51:33.848Z,29.70
2023-03-31T21:54:02.225Z,35.40
2023-03-31T21:56:32.322Z,31.20
2023-03-31T21:59:02.509Z,33.60
2023-03-31T22:01:31.696Z,29.20
2023-03-31T22:04:00.662Z,28.40
2023-03-31T22:06:29.566Z,40.10
2023-03-31T22:08:58.148Z,36.50
2023-03-31T22:11:28.580Z,28.50
2023-03-31T22:13:57.481Z,29.70
2023-03-31T22:16:26.177Z,34.70
2023-03-31T22:18:55.340Z,31.20
2023-03-31T22:21:26.392Z,26.50
2023-03-31T22:23:57.566Z,25.20
2023-03-31T22:26:28.679Z,27.00
2023-03-31T22:28:57.718Z,22.60
2023-03-31T22:31:28.765Z,31.80
2023-03-31T22:33:57.344Z,25.80
2023-03-31T22:36:25.671Z,27.20
2023-03-31T22:38:53.910Z,27.40
2023-03-31T22:41:22.191Z,29.60
2023-03-31T22:43:51.901Z,23.90
2023-03-31T22:46:20.945Z,31.80
2023-03-31T22:48:50.621Z,29.70
2023-03-31T22:51:19.106Z,21.30
2023-03-31T22:53:52.344Z,28.90
2023-03-31T22:56:23.090Z,29.60
2023-03-31T22:58:52.915Z,40.20
2023-03-31T23:01:22.074Z,37.80
2023-03-31T23:03:50.914Z,33.80
2023-03-31T23:06:19.440Z,31.80
2023-03-31T23:08:49.112Z,28.40
2023-03-31T23:11:18.999Z,34.50
2023-03-31T23:13:48.207Z,30.30
2023-03-31T23:16:27.479Z,30.50
2023-03-31T23:18:56.207Z,31.60
2023-03-31T23:21:27.871Z,39.70
2023-03-31T23:23:58.293Z,29.70
2023-03-31T23:26:28.069Z,34.10
2023-03-31T23:28:57.495Z,30.90
2023-03-31T23:31:30.563Z,32.60
2023-03-31T23:34:00.033Z,22.90
2023-03-31T23:36:29.025Z,31.40
2023-03-31T23:38:57.585Z,31.00
2023-03-31T23:41:26.566Z,30.30
2023-03-31T23:43:56.518Z,29.60
2023-03-31T23:46:26.209Z,32.20
2023-03-31T23:48:54.626Z,25.10
2023-03-31T23:51:23.115Z,23.00
2023-03-31T23:53:52.150Z,27.20
2023-03-31T23:56:20.792Z,28.20
2023-03-31T23:58:49.203Z,31.10
